sensor_id;sensor_type;location;lat;lon;timestamp;temperature;humidity
69595;DHT22;56800;52.142;5.364;2023-07-30T00:01:00;17.90;65.90
69595;DHT22;56800;52.142;5.364;2023-07-30T00:03:26;17.90;66.00
69595;DHT22;56800;52.142;5.364;2023-07-30T00:05:56;17.80;65.90
69595;DHT22;56800;52.142;5.364;2023-07-30T00:08:23;17.80;66.00
69595;DHT22;56800;52.142;5.364;2023-07-30T00:10:50;17.80;66.80
69595;DHT22;56800;52.142;5.364;2023-07-30T00:13:17;17.70;66.10
69595;DHT22;56800;52.142;5.364;2023-07-30T00:15:46;17.70;66.20
69595;DHT22;56800;52.142;5.364;2023-07-30T00:18:14;17.60;66.20
69595;DHT22;56800;52.142;5.364;2023-07-30T00:20:41;17.60;66.60
69595;DHT22;56800;52.142;5.364;2023-07-30T00:23:08;17.60;66.40
69595;DHT22;56800;52.142;5.364;2023-07-30T00:25:35;17.50;66.40
69595;DHT22;56800;52.142;5.364;2023-07-30T00:28:02;17.50;66.50
69595;DHT22;56800;52.142;5.364;2023-07-30T00:30:29;17.50;66.60
69595;DHT22;56800;52.142;5.364;2023-07-30T00:32:56;17.40;66.70
69595;DHT22;56800;52.142;5.364;2023-07-30T00:35:22;17.40;66.80
69595;DHT22;56800;52.142;5.364;2023-07-30T00:37:49;17.40;67.00
69595;DHT22;56800;52.142;5.364;2023-07-30T00:40:17;17.30;67.00
69595;DHT22;56800;52.142;5.364;2023-07-30T00:42:45;17.30;67.10
69595;DHT22;56800;52.142;5.364;2023-07-30T00:45:12;17.30;67.30
69595;DHT22;56800;52.142;5.364;2023-07-30T00:47:39;17.30;67.30
69595;DHT22;56800;52.142;5.364;2023-07-30T00:50:07;17.20;67.40
69595;DHT22;56800;52.142;5.364;2023-07-30T00:52:35;17.20;67.50
69595;DHT22;56800;52.142;5.364;2023-07-30T00:55:02;17.20;67.60
69595;DHT22;56800;52.142;5.364;2023-07-30T00:57:29;17.10;67.60
69595;DHT22;56800;52.142;5.364;2023-07-30T00:59:57;17.10;67.70
69595;DHT22;56800;52.142;5.364;2023-07-30T01:02:24;17.10;67.90
69595;DHT22;56800;52.142;5.364;2023-07-30T01:04:52;17.00;67.90
69595;DHT22;56800;52.142;5.364;2023-07-30T01:07:18;17.00;68.10
69595;DHT22;56800;52.142;5.364;2023-07-30T01:09:45;17.00;68.20
69595;DHT22;56800;52.142;5.364;2023-07-30T01:12:13;17.00;68.30
69595;DHT22;56800;52.142;5.364;2023-07-30T01:14:41;16.90;68.40
69595;DHT22;56800;52.142;5.364;2023-07-30T01:17:08;17.00;68.50
69595;DHT22;56800;52.142;5.364;2023-07-30T01:19:35;16.90;68.70
69595;DHT22;56800;52.142;5.364;2023-07-30T01:22:02;16.90;68.80
69595;DHT22;56800;52.142;5.364;2023-07-30T01:24:29;16.90;69.00
69595;DHT22;56800;52.142;5.364;2023-07-30T01:27:05;16.90;69.00
69595;DHT22;56800;52.142;5.364;2023-07-30T01:29:45;16.90;69.20
69595;DHT22;56800;52.142;5.364;2023-07-30T01:32:15;16.90;69.30
69595;DHT22;56800;52.142;5.364;2023-07-30T01:34:44;16.80;69.20
69595;DHT22;56800;52.142;5.364;2023-07-30T01:37:13;16.80;69.40
69595;DHT22;56800;52.142;5.364;2023-07-30T01:39:42;16.80;69.50
69595;DHT22;56800;52.142;5.364;2023-07-30T01:42:14;16.80;69.70
69595;DHT22;56800;52.142;5.364;2023-07-30T01:44:40;16.80;70.70
69595;DHT22;56800;52.142;5.364;2023-07-30T01:47:07;16.80;70.00
69595;DHT22;56800;52.142;5.364;2023-07-30T01:49:34;16.80;70.10
69595;DHT22;56800;52.142;5.364;2023-07-30T01:52:01;16.80;70.10
69595;DHT22;56800;52.142;5.364;2023-07-30T01:54:27;16.80;71.00
69595;DHT22;56800;52.142;5.364;2023-07-30T01:56:54;16.80;70.40
69595;DHT22;56800;52.142;5.364;2023-07-30T01:59:21;16.80;70.50
69595;DHT22;56800;52.142;5.364;2023-07-30T02:01:48;16.80;70.50
69595;DHT22;56800;52.142;5.364;2023-07-30T02:04:14;16.80;70.60
69595;DHT22;56800;52.142;5.364;2023-07-30T02:06:41;16.80;70.70
69595;DHT22;56800;52.142;5.364;2023-07-30T02:09:08;16.80;70.80
69595;DHT22;56800;52.142;5.364;2023-07-30T02:11:34;16.80;70.80
69595;DHT22;56800;52.142;5.364;2023-07-30T02:14:01;16.80;70.90
69595;DHT22;56800;52.142;5.364;2023-07-30T02:16:28;16.80;71.00
69595;DHT22;56800;52.142;5.364;2023-07-30T02:18:55;16.80;71.10
69595;DHT22;56800;52.142;5.364;2023-07-30T02:21:22;16.80;71.10
69595;DHT22;56800;52.142;5.364;2023-07-30T02:23:48;16.80;71.20
69595;DHT22;56800;52.142;5.364;2023-07-30T02:26:15;16.80;71.40
69595;DHT22;56800;52.142;5.364;2023-07-30T02:28:42;16.80;71.50
69595;DHT22;56800;52.142;5.364;2023-07-30T02:31:09;16.80;71.60
69595;DHT22;56800;52.142;5.364;2023-07-30T02:33:36;16.90;71.70
69595;DHT22;56800;52.142;5.364;2023-07-30T02:36:03;16.90;71.70
69595;DHT22;56800;52.142;5.364;2023-07-30T02:38:30;16.90;72.10
69595;DHT22;56800;52.142;5.364;2023-07-30T02:40:57;16.80;71.80
69595;DHT22;56800;52.142;5.364;2023-07-30T02:43:24;16.90;72.00
69595;DHT22;56800;52.142;5.364;2023-07-30T02:45:50;16.80;72.00
69595;DHT22;56800;52.142;5.364;2023-07-30T02:48:17;16.80;72.00
69595;DHT22;56800;52.142;5.364;2023-07-30T02:50:44;16.80;72.10
69595;DHT22;56800;52.142;5.364;2023-07-30T02:53:11;16.90;72.10
69595;DHT22;56800;52.142;5.364;2023-07-30T02:55:37;16.80;72.20
69595;DHT22;56800;52.142;5.364;2023-07-30T02:58:04;16.90;72.30
69595;DHT22;56800;52.142;5.364;2023-07-30T03:00:31;16.80;72.30
69595;DHT22;56800;52.142;5.364;2023-07-30T03:02:57;16.80;72.40
69595;DHT22;56800;52.142;5.364;2023-07-30T03:05:26;16.80;72.50
69595;DHT22;56800;52.142;5.364;2023-07-30T03:07:54;16.80;72.60
69595;DHT22;56800;52.142;5.364;2023-07-30T03:10:20;16.80;72.70
69595;DHT22;56800;52.142;5.364;2023-07-30T03:12:47;16.80;72.80
69595;DHT22;56800;52.142;5.364;2023-07-30T03:15:14;16.80;72.90
69595;DHT22;56800;52.142;5.364;2023-07-30T03:17:41;16.80;72.90
69595;DHT22;56800;52.142;5.364;2023-07-30T03:20:08;16.80;73.00
69595;DHT22;56800;52.142;5.364;2023-07-30T03:22:35;16.70;73.10
69595;DHT22;56800;52.142;5.364;2023-07-30T03:25:02;16.80;73.30
69595;DHT22;56800;52.142;5.364;2023-07-30T03:27:29;16.70;73.30
69595;DHT22;56800;52.142;5.364;2023-07-30T03:29:55;16.80;73.50
69595;DHT22;56800;52.142;5.364;2023-07-30T03:32:22;16.70;73.50
69595;DHT22;56800;52.142;5.364;2023-07-30T03:34:49;16.70;73.50
69595;DHT22;56800;52.142;5.364;2023-07-30T03:37:16;16.70;73.50
69595;DHT22;56800;52.142;5.364;2023-07-30T03:39:42;16.70;73.50
69595;DHT22;56800;52.142;5.364;2023-07-30T03:42:09;16.70;73.50
69595;DHT22;56800;52.142;5.364;2023-07-30T03:44:36;16.70;73.70
69595;DHT22;56800;52.142;5.364;2023-07-30T03:47:02;16.70;73.80
69595;DHT22;56800;52.142;5.364;2023-07-30T03:49:29;16.70;74.00
69595;DHT22;56800;52.142;5.364;2023-07-30T03:51:56;16.70;74.00
69595;DHT22;56800;52.142;5.364;2023-07-30T03:54:31;16.70;74.00
69595;DHT22;56800;52.142;5.364;2023-07-30T03:56:58;16.60;74.00
69595;DHT22;56800;52.142;5.364;2023-07-30T03:59:24;16.70;74.20
69595;DHT22;56800;52.142;5.364;2023-07-30T04:01:51;16.60;74.30
69595;DHT22;56800;52.142;5.364;2023-07-30T04:04:18;16.60;74.40
69595;DHT22;56800;52.142;5.364;2023-07-30T04:06:44;16.70;74.50
69595;DHT22;56800;52.142;5.364;2023-07-30T04:09:11;16.70;74.60
69595;DHT22;56800;52.142;5.364;2023-07-30T04:11:38;16.60;74.60
69595;DHT22;56800;52.142;5.364;2023-07-30T04:14:05;16.60;74.80
69595;DHT22;56800;52.142;5.364;2023-07-30T04:16:34;16.60;74.80
69595;DHT22;56800;52.142;5.364;2023-07-30T04:19:01;16.60;75.00
69595;DHT22;56800;52.142;5.364;2023-07-30T04:21:28;16.70;75.10
69595;DHT22;56800;52.142;5.364;2023-07-30T04:23:55;16.70;75.20
69595;DHT22;56800;52.142;5.364;2023-07-30T04:26:21;16.70;75.30
69595;DHT22;56800;52.142;5.364;2023-07-30T04:28:48;16.70;75.30
69595;DHT22;56800;52.142;5.364;2023-07-30T04:31:15;16.70;75.30
69595;DHT22;56800;52.142;5.364;2023-07-30T04:33:41;16.70;75.30
69595;DHT22;56800;52.142;5.364;2023-07-30T04:36:08;16.80;75.50
69595;DHT22;56800;52.142;5.364;2023-07-30T04:38:35;16.70;75.40
69595;DHT22;56800;52.142;5.364;2023-07-30T04:41:03;16.80;75.60
69595;DHT22;56800;52.142;5.364;2023-07-30T04:43:29;16.70;75.60
69595;DHT22;56800;52.142;5.364;2023-07-30T04:45:56;16.70;75.70
69595;DHT22;56800;52.142;5.364;2023-07-30T04:48:23;16.80;75.80
69595;DHT22;56800;52.142;5.364;2023-07-30T04:50:50;16.80;75.90
69595;DHT22;56800;52.142;5.364;2023-07-30T04:53:16;16.80;76.00
69595;DHT22;56800;52.142;5.364;2023-07-30T04:55:44;16.80;76.00
69595;DHT22;56800;52.142;5.364;2023-07-30T04:58:11;16.90;76.10
69595;DHT22;56800;52.142;5.364;2023-07-30T05:00:38;16.90;76.10
69595;DHT22;56800;52.142;5.364;2023-07-30T05:03:05;16.90;76.20
69595;DHT22;56800;52.142;5.364;2023-07-30T05:05:31;17.00;76.20
69595;DHT22;56800;52.142;5.364;2023-07-30T05:07:58;17.00;76.30
69595;DHT22;56800;52.142;5.364;2023-07-30T05:10:25;17.10;76.20
69595;DHT22;56800;52.142;5.364;2023-07-30T05:12:52;17.10;76.30
69595;DHT22;56800;52.142;5.364;2023-07-30T05:15:18;17.10;76.30
69595;DHT22;56800;52.142;5.364;2023-07-30T05:17:45;17.10;76.40
69595;DHT22;56800;52.142;5.364;2023-07-30T05:20:12;17.20;76.40
69595;DHT22;56800;52.142;5.364;2023-07-30T05:22:38;17.20;76.40
69595;DHT22;56800;52.142;5.364;2023-07-30T05:25:05;17.20;76.40
69595;DHT22;56800;52.142;5.364;2023-07-30T05:27:32;17.20;76.40
69595;DHT22;56800;52.142;5.364;2023-07-30T05:29:59;17.30;76.40
69595;DHT22;56800;52.142;5.364;2023-07-30T05:32:26;17.30;77.10
69595;DHT22;56800;52.142;5.364;2023-07-30T05:34:53;17.30;76.30
69595;DHT22;56800;52.142;5.364;2023-07-30T05:37:19;17.40;76.40
69595;DHT22;56800;52.142;5.364;2023-07-30T05:39:46;17.40;76.40
69595;DHT22;56800;52.142;5.364;2023-07-30T05:42:12;17.40;76.40
69595;DHT22;56800;52.142;5.364;2023-07-30T05:44:39;17.50;76.40
69595;DHT22;56800;52.142;5.364;2023-07-30T05:47:06;17.50;76.30
69595;DHT22;56800;52.142;5.364;2023-07-30T05:49:32;17.50;76.40
69595;DHT22;56800;52.142;5.364;2023-07-30T05:51:59;17.60;76.40
69595;DHT22;56800;52.142;5.364;2023-07-30T05:54:26;17.60;76.40
69595;DHT22;56800;52.142;5.364;2023-07-30T05:56:53;17.60;76.30
69595;DHT22;56800;52.142;5.364;2023-07-30T05:59:20;17.60;76.30
69595;DHT22;56800;52.142;5.364;2023-07-30T06:01:49;17.70;76.20
69595;DHT22;56800;52.142;5.364;2023-07-30T06:04:16;17.70;76.60
69595;DHT22;56800;52.142;5.364;2023-07-30T06:06:42;17.80;76.20
69595;DHT22;56800;52.142;5.364;2023-07-30T06:09:09;17.80;76.10
69595;DHT22;56800;52.142;5.364;2023-07-30T06:11:38;17.80;75.90
69595;DHT22;56800;52.142;5.364;2023-07-30T06:14:05;17.90;75.90
69595;DHT22;56800;52.142;5.364;2023-07-30T06:16:31;17.90;75.90
69595;DHT22;56800;52.142;5.364;2023-07-30T06:18:58;17.90;75.70
69595;DHT22;56800;52.142;5.364;2023-07-30T06:21:25;17.90;75.40
69595;DHT22;56800;52.142;5.364;2023-07-30T06:23:52;17.90;75.40
69595;DHT22;56800;52.142;5.364;2023-07-30T06:26:19;17.90;75.40
69595;DHT22;56800;52.142;5.364;2023-07-30T06:28:45;17.90;75.40
69595;DHT22;56800;52.142;5.364;2023-07-30T06:31:12;17.90;75.90
69595;DHT22;56800;52.142;5.364;2023-07-30T06:33:39;17.90;75.50
69595;DHT22;56800;52.142;5.364;2023-07-30T06:36:05;17.90;75.50
69595;DHT22;56800;52.142;5.364;2023-07-30T06:38:32;17.90;75.40
69595;DHT22;56800;52.142;5.364;2023-07-30T06:41:01;18.00;75.40
69595;DHT22;56800;52.142;5.364;2023-07-30T06:43:28;18.00;75.30
69595;DHT22;56800;52.142;5.364;2023-07-30T06:45:54;18.00;75.30
69595;DHT22;56800;52.142;5.364;2023-07-30T06:48:21;18.10;75.20
69595;DHT22;56800;52.142;5.364;2023-07-30T06:50:48;18.10;75.10
69595;DHT22;56800;52.142;5.364;2023-07-30T06:53:15;18.10;74.90
69595;DHT22;56800;52.142;5.364;2023-07-30T06:55:41;18.10;75.60
69595;DHT22;56800;52.142;5.364;2023-07-30T06:58:08;18.20;74.80
69595;DHT22;56800;52.142;5.364;2023-07-30T07:00:35;18.20;74.70
69595;DHT22;56800;52.142;5.364;2023-07-30T07:03:01;18.20;74.70
69595;DHT22;56800;52.142;5.364;2023-07-30T07:05:28;18.20;74.30
69595;DHT22;56800;52.142;5.364;2023-07-30T07:07:55;18.10;74.20
69595;DHT22;56800;52.142;5.364;2023-07-30T07:10:22;18.10;74.20
69595;DHT22;56800;52.142;5.364;2023-07-30T07:12:49;18.10;74.20
69595;DHT22;56800;52.142;5.364;2023-07-30T07:15:16;18.10;74.30
69595;DHT22;56800;52.142;5.364;2023-07-30T07:17:43;18.10;74.20
69595;DHT22;56800;52.142;5.364;2023-07-30T07:20:10;18.10;74.20
69595;DHT22;56800;52.142;5.364;2023-07-30T07:22:37;18.10;74.20
69595;DHT22;56800;52.142;5.364;2023-07-30T07:25:05;18.20;74.20
69595;DHT22;56800;52.142;5.364;2023-07-30T07:27:31;18.20;74.20
69595;DHT22;56800;52.142;5.364;2023-07-30T07:29:58;18.20;74.20
69595;DHT22;56800;52.142;5.364;2023-07-30T07:32:26;18.20;74.20
69595;DHT22;56800;52.142;5.364;2023-07-30T07:34:53;18.30;74.30
69595;DHT22;56800;52.142;5.364;2023-07-30T07:37:20;18.30;74.10
69595;DHT22;56800;52.142;5.364;2023-07-30T07:39:47;18.40;73.80
69595;DHT22;56800;52.142;5.364;2023-07-30T07:42:13;18.40;73.60
69595;DHT22;56800;52.142;5.364;2023-07-30T07:44:40;18.40;73.40
69595;DHT22;56800;52.142;5.364;2023-07-30T07:47:08;18.50;73.50
69595;DHT22;56800;52.142;5.364;2023-07-30T07:49:35;18.50;74.20
69595;DHT22;56800;52.142;5.364;2023-07-30T07:52:02;18.60;73.30
69595;DHT22;56800;52.142;5.364;2023-07-30T07:54:29;18.60;73.30
69595;DHT22;56800;52.142;5.364;2023-07-30T07:56:55;18.70;73.10
69595;DHT22;56800;52.142;5.364;2023-07-30T07:59:22;18.70;72.90
69595;DHT22;56800;52.142;5.364;2023-07-30T08:01:49;18.80;72.80
69595;DHT22;56800;52.142;5.364;2023-07-30T08:04:15;18.80;72.50
69595;DHT22;56800;52.142;5.364;2023-07-30T08:06:42;18.80;72.60
69595;DHT22;56800;52.142;5.364;2023-07-30T08:09:09;18.80;72.50
69595;DHT22;56800;52.142;5.364;2023-07-30T08:11:36;18.90;72.30
69595;DHT22;56800;52.142;5.364;2023-07-30T08:14:03;19.00;72.30
69595;DHT22;56800;52.142;5.364;2023-07-30T08:16:30;19.00;72.80
69595;DHT22;56800;52.142;5.364;2023-07-30T08:18:57;19.00;71.80
69595;DHT22;56800;52.142;5.364;2023-07-30T08:21:24;19.00;71.70
69595;DHT22;56800;52.142;5.364;2023-07-30T08:23:50;19.00;71.60
69595;DHT22;56800;52.142;5.364;2023-07-30T08:26:17;19.10;71.30
69595;DHT22;56800;52.142;5.364;2023-07-30T08:28:44;19.00;71.10
69595;DHT22;56800;52.142;5.364;2023-07-30T08:31:10;19.00;70.90
69595;DHT22;56800;52.142;5.364;2023-07-30T08:33:37;19.00;71.00
69595;DHT22;56800;52.142;5.364;2023-07-30T08:36:04;19.00;71.00
69595;DHT22;56800;52.142;5.364;2023-07-30T08:38:31;19.00;71.00
69595;DHT22;56800;52.142;5.364;2023-07-30T08:40:57;19.00;71.00
69595;DHT22;56800;52.142;5.364;2023-07-30T08:43:24;19.00;70.90
69595;DHT22;56800;52.142;5.364;2023-07-30T08:45:51;18.90;70.60
69595;DHT22;56800;52.142;5.364;2023-07-30T08:48:18;18.90;70.50
69595;DHT22;56800;52.142;5.364;2023-07-30T08:50:45;19.00;70.60
69595;DHT22;56800;52.142;5.364;2023-07-30T08:53:13;19.10;70.50
69595;DHT22;56800;52.142;5.364;2023-07-30T08:55:41;19.20;70.50
69595;DHT22;56800;52.142;5.364;2023-07-30T08:58:09;19.30;70.20
69595;DHT22;56800;52.142;5.364;2023-07-30T09:00:38;19.40;69.70
69595;DHT22;56800;52.142;5.364;2023-07-30T09:03:07;19.50;69.40
69595;DHT22;56800;52.142;5.364;2023-07-30T09:05:34;19.70;68.70
69595;DHT22;56800;52.142;5.364;2023-07-30T09:08:02;19.70;67.90
69595;DHT22;56800;52.142;5.364;2023-07-30T09:10:28;19.70;68.10
69595;DHT22;56800;52.142;5.364;2023-07-30T09:12:56;19.70;68.10
69595;DHT22;56800;52.142;5.364;2023-07-30T09:15:37;19.70;68.10
69595;DHT22;56800;52.142;5.364;2023-07-30T09:18:05;19.70;68.10
69595;DHT22;56800;52.142;5.364;2023-07-30T09:20:39;19.70;68.20
69595;DHT22;56800;52.142;5.364;2023-07-30T09:23:06;19.80;67.90
69595;DHT22;56800;52.142;5.364;2023-07-30T09:25:37;19.80;67.90
69595;DHT22;56800;52.142;5.364;2023-07-30T09:28:07;19.80;67.90
69595;DHT22;56800;52.142;5.364;2023-07-30T09:30:34;19.80;68.70
69595;DHT22;56800;52.142;5.364;2023-07-30T09:33:01;19.80;67.80
69595;DHT22;56800;52.142;5.364;2023-07-30T09:35:28;19.80;67.50
69595;DHT22;56800;52.142;5.364;2023-07-30T09:37:59;19.80;67.10
69595;DHT22;56800;52.142;5.364;2023-07-30T09:40:33;19.70;67.00
69595;DHT22;56800;52.142;5.364;2023-07-30T09:43:02;19.70;67.10
69595;DHT22;56800;52.142;5.364;2023-07-30T09:45:34;19.80;67.60
69595;DHT22;56800;52.142;5.364;2023-07-30T09:48:03;20.00;67.90
69595;DHT22;56800;52.142;5.364;2023-07-30T09:50:33;20.20;67.50
69595;DHT22;56800;52.142;5.364;2023-07-30T09:53:01;20.30;67.10
69595;DHT22;56800;52.142;5.364;2023-07-30T09:55:28;20.50;67.30
69595;DHT22;56800;52.142;5.364;2023-07-30T09:57:55;20.70;67.00
69595;DHT22;56800;52.142;5.364;2023-07-30T10:00:22;21.00;66.50
69595;DHT22;56800;52.142;5.364;2023-07-30T10:02:49;21.20;66.20
69595;DHT22;56800;52.142;5.364;2023-07-30T10:05:20;21.40;65.60
69595;DHT22;56800;52.142;5.364;2023-07-30T10:07:59;21.50;65.00
69595;DHT22;56800;52.142;5.364;2023-07-30T10:10:28;21.60;64.50
69595;DHT22;56800;52.142;5.364;2023-07-30T10:12:59;21.70;64.20
69595;DHT22;56800;52.142;5.364;2023-07-30T10:15:27;21.70;63.30
69595;DHT22;56800;52.142;5.364;2023-07-30T10:17:56;21.90;62.90
69595;DHT22;56800;52.142;5.364;2023-07-30T10:20:27;21.90;62.00
69595;DHT22;56800;52.142;5.364;2023-07-30T10:23:00;22.00;62.00
69595;DHT22;56800;52.142;5.364;2023-07-30T10:25:47;22.10;61.20
69595;DHT22;56800;52.142;5.364;2023-07-30T10:30:58;22.10;59.80
69595;DHT22;56800;52.142;5.364;2023-07-30T10:33:49;22.00;60.40
69595;DHT22;56800;52.142;5.364;2023-07-30T10:36:31;22.00;59.40
69595;DHT22;56800;52.142;5.364;2023-07-30T10:39:11;22.00;59.90
69595;DHT22;56800;52.142;5.364;2023-07-30T10:41:39;22.20;59.40
69595;DHT22;56800;52.142;5.364;2023-07-30T10:44:33;22.20;60.50
69595;DHT22;56800;52.142;5.364;2023-07-30T10:47:01;22.10;59.60
69595;DHT22;56800;52.142;5.364;2023-07-30T10:49:30;22.00;59.60
69595;DHT22;56800;52.142;5.364;2023-07-30T10:52:02;22.00;60.10
69595;DHT22;56800;52.142;5.364;2023-07-30T10:54:36;22.10;60.40
69595;DHT22;56800;52.142;5.364;2023-07-30T10:57:03;22.20;60.20
69595;DHT22;56800;52.142;5.364;2023-07-30T10:59:37;22.40;60.00
69595;DHT22;56800;52.142;5.364;2023-07-30T11:02:04;22.60;58.40
69595;DHT22;56800;52.142;5.364;2023-07-30T11:04:34;22.60;57.40
69595;DHT22;56800;52.142;5.364;2023-07-30T11:07:02;22.60;57.10
69595;DHT22;56800;52.142;5.364;2023-07-30T11:09:30;22.60;56.80
69595;DHT22;56800;52.142;5.364;2023-07-30T11:11:57;22.60;57.00
69595;DHT22;56800;52.142;5.364;2023-07-30T11:14:24;22.50;56.60
69595;DHT22;56800;52.142;5.364;2023-07-30T11:16:59;22.50;55.40
69595;DHT22;56800;52.142;5.364;2023-07-30T11:19:27;22.40;55.00
69595;DHT22;56800;52.142;5.364;2023-07-30T11:21:55;22.30;55.50
69595;DHT22;56800;52.142;5.364;2023-07-30T11:24:35;22.30;55.30
69595;DHT22;56800;52.142;5.364;2023-07-30T11:27:03;22.30;54.60
69595;DHT22;56800;52.142;5.364;2023-07-30T11:29:30;22.20;54.90
69595;DHT22;56800;52.142;5.364;2023-07-30T11:31:58;22.20;55.10
69595;DHT22;56800;52.142;5.364;2023-07-30T11:34:26;22.20;55.40
69595;DHT22;56800;52.142;5.364;2023-07-30T11:36:54;22.20;55.50
69595;DHT22;56800;52.142;5.364;2023-07-30T11:39:23;22.10;55.20
69595;DHT22;56800;52.142;5.364;2023-07-30T11:41:50;22.00;55.00
69595;DHT22;56800;52.142;5.364;2023-07-30T11:44:37;22.00;55.30
69595;DHT22;56800;52.142;5.364;2023-07-30T11:47:07;22.10;55.80
69595;DHT22;56800;52.142;5.364;2023-07-30T11:49:35;22.20;56.20
69595;DHT22;56800;52.142;5.364;2023-07-30T11:54:34;22.50;55.60
69595;DHT22;56800;52.142;5.364;2023-07-30T11:57:01;22.50;55.30
69595;DHT22;56800;52.142;5.364;2023-07-30T11:59:27;22.60;55.40
69595;DHT22;56800;52.142;5.364;2023-07-30T12:01:54;22.70;55.00
69595;DHT22;56800;52.142;5.364;2023-07-30T12:04:22;22.70;54.60
69595;DHT22;56800;52.142;5.364;2023-07-30T12:06:51;22.60;54.80
69595;DHT22;56800;52.142;5.364;2023-07-30T12:09:21;22.60;55.60
69595;DHT22;56800;52.142;5.364;2023-07-30T12:11:51;22.70;55.60
69595;DHT22;56800;52.142;5.364;2023-07-30T12:14:19;22.70;54.50
69595;DHT22;56800;52.142;5.364;2023-07-30T12:16:47;22.80;54.70
69595;DHT22;56800;52.142;5.364;2023-07-30T12:19:14;22.80;54.30
69595;DHT22;56800;52.142;5.364;2023-07-30T12:21:41;22.80;54.20
69595;DHT22;56800;52.142;5.364;2023-07-30T12:24:08;22.80;54.40
69595;DHT22;56800;52.142;5.364;2023-07-30T12:26:34;22.80;54.70
69595;DHT22;56800;52.142;5.364;2023-07-30T12:29:01;22.80;54.20
69595;DHT22;56800;52.142;5.364;2023-07-30T12:31:28;22.80;54.10
69595;DHT22;56800;52.142;5.364;2023-07-30T12:33:55;22.80;53.60
69595;DHT22;56800;52.142;5.364;2023-07-30T12:36:22;22.80;53.60
69595;DHT22;56800;52.142;5.364;2023-07-30T12:38:49;22.70;52.70
69595;DHT22;56800;52.142;5.364;2023-07-30T12:41:15;22.60;53.40
69595;DHT22;56800;52.142;5.364;2023-07-30T12:43:42;22.70;52.20
69595;DHT22;56800;52.142;5.364;2023-07-30T12:46:09;22.60;51.70
69595;DHT22;56800;52.142;5.364;2023-07-30T12:48:35;22.40;51.90
69595;DHT22;56800;52.142;5.364;2023-07-30T12:51:02;22.50;52.80
69595;DHT22;56800;52.142;5.364;2023-07-30T12:53:29;22.50;52.50
69595;DHT22;56800;52.142;5.364;2023-07-30T12:55:56;22.60;52.50
69595;DHT22;56800;52.142;5.364;2023-07-30T12:58:22;22.60;52.80
69595;DHT22;56800;52.142;5.364;2023-07-30T13:00:49;22.60;52.90
69595;DHT22;56800;52.142;5.364;2023-07-30T13:03:16;22.70;52.90
69595;DHT22;56800;52.142;5.364;2023-07-30T13:05:43;22.70;52.60
69595;DHT22;56800;52.142;5.364;2023-07-30T13:08:10;22.60;52.90
69595;DHT22;56800;52.142;5.364;2023-07-30T13:10:36;22.70;53.50
69595;DHT22;56800;52.142;5.364;2023-07-30T13:13:03;22.80;53.40
69595;DHT22;56800;52.142;5.364;2023-07-30T13:15:30;22.80;53.60
69595;DHT22;56800;52.142;5.364;2023-07-30T13:17:56;22.80;53.40
69595;DHT22;56800;52.142;5.364;2023-07-30T13:20:23;22.80;53.70
69595;DHT22;56800;52.142;5.364;2023-07-30T13:22:50;22.80;53.80
69595;DHT22;56800;52.142;5.364;2023-07-30T13:25:18;22.80;53.40
69595;DHT22;56800;52.142;5.364;2023-07-30T13:27:46;23.00;52.50
69595;DHT22;56800;52.142;5.364;2023-07-30T13:30:13;23.00;50.90
69595;DHT22;56800;52.142;5.364;2023-07-30T13:32:39;22.90;50.00
69595;DHT22;56800;52.142;5.364;2023-07-30T13:35:06;22.80;49.70
69595;DHT22;56800;52.142;5.364;2023-07-30T13:37:33;22.70;49.80
69595;DHT22;56800;52.142;5.364;2023-07-30T13:40:00;22.80;50.60
69595;DHT22;56800;52.142;5.364;2023-07-30T13:42:27;23.10;50.50
69595;DHT22;56800;52.142;5.364;2023-07-30T13:44:54;23.40;50.20
69595;DHT22;56800;52.142;5.364;2023-07-30T13:47:20;23.60;49.20
69595;DHT22;56800;52.142;5.364;2023-07-30T13:49:47;23.80;48.90
69595;DHT22;56800;52.142;5.364;2023-07-30T13:52:14;23.90;48.10
69595;DHT22;56800;52.142;5.364;2023-07-30T13:54:41;24.00;48.20
69595;DHT22;56800;52.142;5.364;2023-07-30T13:57:08;24.30;47.80
69595;DHT22;56800;52.142;5.364;2023-07-30T13:59:35;24.50;47.30
69595;DHT22;56800;52.142;5.364;2023-07-30T14:02:03;24.70;46.60
69595;DHT22;56800;52.142;5.364;2023-07-30T14:04:29;24.70;46.60
69595;DHT22;56800;52.142;5.364;2023-07-30T14:06:56;24.60;46.80
69595;DHT22;56800;52.142;5.364;2023-07-30T14:09:23;24.40;46.50
69595;DHT22;56800;52.142;5.364;2023-07-30T14:11:51;24.30;46.90
69595;DHT22;56800;52.142;5.364;2023-07-30T14:14:18;24.10;47.10
69595;DHT22;56800;52.142;5.364;2023-07-30T14:16:47;24.00;47.30
69595;DHT22;56800;52.142;5.364;2023-07-30T14:19:14;23.90;47.70
69595;DHT22;56800;52.142;5.364;2023-07-30T14:21:40;23.80;47.70
69595;DHT22;56800;52.142;5.364;2023-07-30T14:24:08;23.70;48.20
69595;DHT22;56800;52.142;5.364;2023-07-30T14:26:34;23.70;48.50
69595;DHT22;56800;52.142;5.364;2023-07-30T14:29:01;24.00;48.20
69595;DHT22;56800;52.142;5.364;2023-07-30T14:31:28;24.10;47.80
69595;DHT22;56800;52.142;5.364;2023-07-30T14:33:55;24.30;47.50
69595;DHT22;56800;52.142;5.364;2023-07-30T14:36:22;24.40;46.80
69595;DHT22;56800;52.142;5.364;2023-07-30T14:38:48;24.40;46.00
69595;DHT22;56800;52.142;5.364;2023-07-30T14:41:15;24.30;45.80
69595;DHT22;56800;52.142;5.364;2023-07-30T14:43:42;24.20;46.20
69595;DHT22;56800;52.142;5.364;2023-07-30T14:46:09;23.90;46.40
69595;DHT22;56800;52.142;5.364;2023-07-30T14:48:43;23.70;46.90
69595;DHT22;56800;52.142;5.364;2023-07-30T14:51:10;23.60;47.90
69595;DHT22;56800;52.142;5.364;2023-07-30T14:53:36;23.70;48.60
69595;DHT22;56800;52.142;5.364;2023-07-30T14:56:04;23.80;48.60
69595;DHT22;56800;52.142;5.364;2023-07-30T14:58:31;24.10;48.80
69595;DHT22;56800;52.142;5.364;2023-07-30T15:00:58;24.20;48.20
69595;DHT22;56800;52.142;5.364;2023-07-30T15:03:24;24.20;48.10
69595;DHT22;56800;52.142;5.364;2023-07-30T15:05:51;24.10;47.70
69595;DHT22;56800;52.142;5.364;2023-07-30T15:08:18;24.00;48.10
69595;DHT22;56800;52.142;5.364;2023-07-30T15:10:45;23.90;48.40
69595;DHT22;56800;52.142;5.364;2023-07-30T15:13:12;23.70;48.70
69595;DHT22;56800;52.142;5.364;2023-07-30T15:15:39;23.50;49.50
69595;DHT22;56800;52.142;5.364;2023-07-30T15:18:06;23.40;49.70
69595;DHT22;56800;52.142;5.364;2023-07-30T15:20:35;23.20;49.80
69595;DHT22;56800;52.142;5.364;2023-07-30T15:23:02;23.10;49.70
69595;DHT22;56800;52.142;5.364;2023-07-30T15:25:28;23.00;49.50
69595;DHT22;56800;52.142;5.364;2023-07-30T15:27:55;22.80;49.20
69595;DHT22;56800;52.142;5.364;2023-07-30T15:30:24;22.80;49.30
69595;DHT22;56800;52.142;5.364;2023-07-30T15:32:51;22.70;49.30
69595;DHT22;56800;52.142;5.364;2023-07-30T15:35:18;22.70;49.30
69595;DHT22;56800;52.142;5.364;2023-07-30T15:37:44;22.60;49.70